createdAt,value
2023-04-08T00:02:19.580Z,101656.97
2023-04-08T00:04:47.867Z,101650.69
2023-04-08T00:07:15.877Z,101652.38
2023-04-08T00:09:43.854Z,101656.78
2023-04-08T00:12:11.996Z,101659.50
2023-04-08T00:14:41.594Z,101658.66
2023-04-08T00:17:09.806Z,101641.00
2023-04-08T00:19:39.212Z,101657.81
2023-04-08T00:22:07.150Z,101658.84
2023-04-08T00:24:36.256Z,101655.50
2023-04-08T00:27:04.256Z,101625.56
2023-04-08T00:29:32.236Z,101640.34
2023-04-08T00:32:00.189Z,101607.72
2023-04-08T00:34:28.419Z,101665.28
2023-04-08T00:36:57.868Z,101671.56
2023-04-08T00:39:25.777Z,101646.78
2023-04-08T00:41:53.715Z,101649.50
2023-04-08T00:44:21.928Z,101643.22
2023-04-08T00:46:49.919Z,101660.06
2023-04-08T00:49:18.049Z,101659.03
2023-04-08T00:51:46.023Z,101629.75
2023-04-08T00:54:15.509Z,101656.25
2023-04-08T00:56:43.393Z,101664.66
2023-04-08T00:59:11.288Z,101665.50
2023-04-08T01:01:43.132Z,101623.22
2023-04-08T01:04:14.738Z,101641.66
2023-04-08T01:06:46.955Z,101624.22
2023-04-08T01:09:16.404Z,101665.03
2023-04-08T01:11:45.139Z,101661.88
2023-04-08T01:14:13.691Z,101653.44
2023-04-08T01:16:41.643Z,101675.53
2023-04-08T01:19:09.985Z,101675.34
2023-04-08T01:21:38.284Z,101640.00
2023-04-08T01:24:08.306Z,101676.38
2023-04-08T01:26:37.627Z,101642.72
2023-04-08T01:29:05.563Z,101678.06
2023-04-08T01:31:33.608Z,101677.22
2023-04-08T01:34:02.575Z,101632.97
2023-04-08T01:36:30.585Z,101672.81
2023-04-08T01:38:58.644Z,101671.97
2023-04-08T01:41:26.561Z,101678.25
2023-04-08T01:43:55.815Z,101674.69
2023-04-08T01:46:23.763Z,101674.88
2023-04-08T01:48:51.960Z,101679.28
2023-04-08T01:51:20.133Z,101672.75
2023-04-08T01:53:48.266Z,101678.44
2023-04-08T01:56:16.175Z,101676.31
2023-04-08T01:58:47.691Z,101669.00
2023-04-08T02:01:19.038Z,101680.31
2023-04-08T02:03:48.024Z,101676.75
2023-04-08T02:06:15.974Z,101636.53
2023-04-08T02:08:43.887Z,101683.00
2023-04-08T02:11:11.801Z,101685.72
2023-04-08T02:13:39.947Z,101680.31
2023-04-08T02:16:15.859Z,101670.56
2023-04-08T02:18:46.695Z,101629.16
2023-04-08T02:21:16.296Z,101680.31
2023-04-08T02:23:45.076Z,101684.69
2023-04-08T02:26:15.007Z,101677.59
2023-04-08T02:28:43.074Z,101687.41
2023-04-08T02:31:13.510Z,101682.84
2023-04-08T02:33:41.732Z,101682.84
2023-04-08T02:36:11.107Z,101683.88
2023-04-08T02:38:39.037Z,101687.41
2023-04-08T02:41:06.887Z,101655.63
2023-04-08T02:43:35.694Z,101684.69
2023-04-08T02:46:04.369Z,101683.88
2023-04-08T02:48:32.418Z,101686.56
2023-04-08T02:51:00.316Z,101689.28
2023-04-08T02:53:29.905Z,101685.72
2023-04-08T02:55:57.787Z,101685.94
2023-04-08T02:58:25.793Z,101685.09
2023-04-08T03:00:53.775Z,101684.88
2023-04-08T03:03:27.649Z,101694.91
2023-04-08T03:05:55.753Z,101694.91
2023-04-08T03:08:23.739Z,101693.03
2023-04-08T03:10:53.060Z,101689.47
2023-04-08T03:13:21.257Z,101684.03
2023-04-08T03:15:49.190Z,101700.16
2023-04-08T03:18:17.819Z,101684.63
2023-04-08T03:20:45.950Z,101693.69
2023-04-08T03:23:14.176Z,101703.53
2023-04-08T03:25:42.085Z,101699.78
2023-04-08T03:28:11.414Z,101706.88
2023-04-08T03:30:39.440Z,101700.41
2023-04-08T03:33:09.299Z,101700.41
2023-04-08T03:35:37.778Z,101693.03
2023-04-08T03:38:05.694Z,101701.00
2023-04-08T03:40:33.648Z,101674.06
2023-04-08T03:43:01.812Z,101708.38
2023-04-08T03:45:31.141Z,101696.59
2023-04-08T03:47:59.154Z,101702.94
2023-04-08T03:50:27.095Z,101715.69
2023-04-08T03:52:55.264Z,101709.59
2023-04-08T03:55:23.458Z,101685.47
2023-04-08T03:57:51.358Z,101711.94
2023-04-08T04:00:19.269Z,101703.31
2023-04-08T04:02:48.915Z,101702.09
2023-04-08T04:05:16.924Z,101702.94
2023-04-08T04:07:44.811Z,101703.78
2023-04-08T04:10:12.824Z,101706.50
2023-04-08T04:12:41.060Z,101703.78
2023-04-08T04:15:13.034Z,101711.09
2023-04-08T04:17:40.970Z,101711.72
2023-04-08T04:20:11.655Z,101703.78
2023-04-08T04:22:39.583Z,101709.22
2023-04-08T04:25:08.450Z,101685.56
2023-04-08T04:27:36.757Z,101716.53
2023-04-08T04:30:05.736Z,101720.09
2023-04-08T04:32:34.004Z,101707.69
2023-04-08T04:35:02.372Z,101719.06
2023-04-08T04:37:32.463Z,101725.31
2023-04-08T04:40:00.341Z,101732.66
2023-04-08T04:42:28.323Z,101737.88
2023-04-08T04:44:56.541Z,101737.88
2023-04-08T04:47:24.597Z,101737.88
2023-04-08T04:49:52.621Z,101739.56
2023-04-08T04:52:20.543Z,101716.63
2023-04-08T04:54:50.469Z,101715.50
2023-04-08T04:57:18.333Z,101735.16
2023-04-08T04:59:46.262Z,101673.25
2023-04-08T05:02:14.231Z,101741.59
2023-04-08T05:04:42.203Z,101737.25
2023-04-08T05:07:10.189Z,101709.16
2023-04-08T05:09:38.102Z,101745.16
2023-04-08T05:12:07.746Z,101742.44
2023-04-08T05:14:35.962Z,101751.44
2023-04-08T05:17:05.738Z,101744.31
2023-04-08T05:19:34.867Z,101745.16
2023-04-08T05:22:02.818Z,101743.50
2023-04-08T05:24:30.957Z,101704.31
2023-04-08T05:26:58.877Z,101748.09
2023-04-08T05:29:28.295Z,101709.53
2023-04-08T05:31:56.563Z,101727.22
2023-04-08T05:34:24.798Z,101755.19
2023-04-08T05:36:52.882Z,101760.63
2023-04-08T05:39:20.805Z,101748.41
2023-04-08T05:41:48.661Z,101766.06
2023-04-08T05:44:16.890Z,101766.91
2023-04-08T05:46:46.262Z,101769.63
2023-04-08T05:49:14.207Z,101767.75
2023-04-08T05:51:42.225Z,101783.03
2023-04-08T05:54:10.409Z,101780.31
2023-04-08T05:56:38.272Z,101782.19
2023-04-08T05:59:06.219Z,101791.16
2023-04-08T06:01:34.206Z,101779.59
2023-04-08T06:04:04.076Z,101788.44
2023-04-08T06:06:32.340Z,101708.19
2023-04-08T06:09:00.528Z,101790.31
2023-04-08T06:11:28.777Z,101788.63
2023-04-08T06:13:57.299Z,101739.53
2023-04-08T06:16:25.298Z,101803.91
2023-04-08T06:18:53.575Z,101802.88
2023-04-08T06:21:23.156Z,101803.72
2023-04-08T06:23:51.448Z,101675.28
2023-04-08T06:26:19.408Z,101811.03
2023-04-08T06:28:47.334Z,101814.78
2023-04-08T06:31:15.447Z,101812.06
2023-04-08T06:33:43.646Z,101818.34
2023-04-08T06:36:13.349Z,101817.50
2023-04-08T06:38:42.632Z,101820.22
2023-04-08T06:41:10.535Z,101822.06
2023-04-08T06:43:38.806Z,101817.50
2023-04-08T06:46:07.080Z,101810.31
2023-04-08T06:48:35.069Z,101828.34
2023-04-08T06:51:03.048Z,101822.06
2023-04-08T06:53:32.746Z,101826.47
2023-04-08T06:56:02.108Z,101838.19
2023-04-08T06:58:29.999Z,101830.88
2023-04-08T07:00:58.032Z,101824.63
2023-04-08T07:03:26.571Z,101816.19
2023-04-08T07:05:54.772Z,101832.50
2023-04-08T07:08:22.675Z,101843.63
2023-04-08T07:10:50.550Z,101843.63
2023-04-08T07:13:20.157Z,101830.81
2023-04-08T07:15:48.087Z,101840.91
2023-04-08T07:18:16.033Z,101841.75
2023-04-08T07:20:43.971Z,101847.19
2023-04-08T07:23:12.163Z,101806.53
2023-04-08T07:25:40.073Z,101846.34
2023-04-08T07:28:08.041Z,101832.22
2023-04-08T07:30:37.353Z,101848.22
2023-04-08T07:33:05.680Z,101850.09
2023-04-08T07:35:34.686Z,101854.50
2023-04-08T07:38:02.621Z,101861.81
2023-04-08T07:40:31.019Z,101860.09
2023-04-08T07:43:00.237Z,101866.38
2023-04-08T07:45:28.194Z,101869.09
2023-04-08T07:47:57.572Z,101865.75
2023-04-08T07:50:25.530Z,101866.38
2023-04-08T07:52:54.208Z,101883.53
2023-04-08T07:55:22.106Z,101858.53
2023-04-08T07:57:50.094Z,101877.25
2023-04-08T08:00:21.724Z,101878.94
2023-04-08T08:02:50.078Z,101888.97
2023-04-08T08:05:19.563Z,101881.66
2023-04-08T08:07:47.533Z,101887.94
2023-04-08T08:10:15.514Z,101871.94
2023-04-08T08:12:43.746Z,101898.63
2023-04-08T08:15:12.354Z,101900.50
2023-04-08T08:17:40.351Z,101904.06
2023-04-08T08:20:09.384Z,101904.06
2023-04-08T08:22:47.337Z,101911.38
2023-04-08T08:25:23.580Z,101914.94
2023-04-08T08:27:53.394Z,101914.09
2023-04-08T08:30:22.288Z,101914.09
2023-04-08T08:32:52.189Z,101916.81
2023-04-08T08:35:20.122Z,101892.91
2023-04-08T08:37:49.678Z,101915.97
2023-04-08T08:40:17.864Z,101921.38
2023-04-08T08:42:51.429Z,101916.13
2023-04-08T08:45:19.958Z,101919.53
2023-04-08T08:47:50.364Z,101924.09
2023-04-08T08:50:19.052Z,101873.97
2023-04-08T08:52:52.010Z,101905.16
2023-04-08T08:55:34.999Z,101906.88
2023-04-08T08:58:08.924Z,101908.94
2023-04-08T09:00:37.661Z,101922.41
2023-04-08T09:03:18.944Z,101924.28
2023-04-08T09:05:51.290Z,101922.41
2023-04-08T09:08:31.861Z,101925.97
2023-04-08T09:11:13.780Z,101915.69
2023-04-08T09:13:41.752Z,101924.94
2023-04-08T09:16:10.391Z,101935.81
2023-04-08T09:18:38.450Z,101927.47
2023-04-08T09:21:07.214Z,101932.06
2023-04-08T09:23:44.108Z,101832.78
2023-04-08T09:26:12.954Z,101926.34
2023-04-08T09:28:41.318Z,101936.66
2023-04-08T09:31:23.851Z,101931.22
2023-04-08T09:33:52.214Z,101774.16
2023-04-08T09:36:20.450Z,101932.44
2023-04-08T09:38:50.576Z,101942.09
2023-04-08T09:41:18.890Z,101942.94
2023-04-08T09:43:50.486Z,101947.53
2023-04-08T09:46:19.516Z,101951.09
2023-04-08T09:48:51.375Z,101954.63
2023-04-08T09:51:21.367Z,101942.94
2023-04-08T09:53:55.531Z,101947.53
2023-04-08T09:56:23.414Z,101959.25
2023-04-08T09:58:53.581Z,101951.91
2023-04-08T10:01:25.801Z,101931.97
2023-04-08T10:03:57.143Z,101949.19
2023-04-08T10:06:29.027Z,101909.56
2023-04-08T10:08:58.674Z,101927.41
2023-04-08T10:11:26.578Z,101940.22
2023-04-08T10:13:54.816Z,101943.75
2023-04-08T10:16:24.530Z,101946.47
2023-04-08T10:18:55.727Z,101929.06
2023-04-08T10:21:36.399Z,101949.19
2023-04-08T10:24:08.004Z,101938.25
2023-04-08T10:26:37.226Z,101948.16
2023-04-08T10:29:44.364Z,101954.44
2023-04-08T10:32:30.193Z,101955.28
2023-04-08T10:34:58.194Z,101952.75
2023-04-08T10:37:26.275Z,101953.59
2023-04-08T10:39:56.979Z,101941.59
2023-04-08T10:42:29.567Z,101908.72
2023-04-08T10:45:01.621Z,101950.88
2023-04-08T10:47:29.641Z,101949.00
2023-04-08T10:49:57.826Z,101933.84
2023-04-08T10:52:27.535Z,101942.44
2023-04-08T10:54:57.181Z,101829.50
2023-04-08T10:57:25.855Z,101949.75
2023-04-08T10:59:53.788Z,101936.56
2023-04-08T11:02:21.929Z,101954.44
2023-04-08T11:04:50.683Z,101950.88
2023-04-08T11:07:21.337Z,101946.28
2023-04-08T11:09:49.899Z,101826.88
2023-04-08T11:12:19.221Z,101938.16
2023-04-08T11:14:48.521Z,101927.84
2023-04-08T11:17:17.845Z,101939.16
2023-04-08T11:19:45.767Z,101934.41
2023-04-08T11:22:14.538Z,101904.44
2023-04-08T11:24:42.926Z,101933.56
2023-04-08T11:27:10.865Z,101932.72
2023-04-08T11:29:40.158Z,101935.25
2023-04-08T11:32:09.010Z,101924.56
2023-04-08T11:34:40.287Z,101926.25
2023-04-08T11:37:08.206Z,101923.53
2023-04-08T11:39:36.416Z,101924.38
2023-04-08T11:42:04.357Z,101921.66
2023-04-08T11:44:33.218Z,101922.50
2023-04-08T11:47:03.076Z,101922.50
2023-04-08T11:49:45.125Z,101917.06
2023-04-08T11:52:13.052Z,101893.41
2023-04-08T11:54:42.696Z,101921.66
2023-04-08T11:57:10.946Z,101918.28
2023-04-08T11:59:38.916Z,101924.38
2023-04-08T12:02:08.355Z,101824.91
2023-04-08T12:04:36.676Z,101910.88
2023-04-08T12:07:04.753Z,101922.50
2023-04-08T12:09:32.662Z,101923.53
2023-04-08T12:12:01.272Z,101920.81
2023-04-08T12:14:30.736Z,101921.66
2023-04-08T12:16:58.668Z,101922.69
2023-04-08T12:19:27.981Z,101919.31
2023-04-08T12:21:55.897Z,101935.25
2023-04-08T12:24:24.102Z,101923.44
2023-04-08T12:26:52.112Z,101944.25
2023-04-08T12:29:20.046Z,101942.56
2023-04-08T12:31:48.022Z,101937.13
2023-04-08T12:34:16.707Z,101930.84
2023-04-08T12:36:46.136Z,101928.97
2023-04-08T12:39:14.033Z,101914.00
2023-04-08T12:41:42.018Z,101932.53
2023-04-08T12:44:10.936Z,101912.03
2023-04-08T12:46:38.989Z,101941.53
2023-04-08T12:49:07.324Z,101934.13
2023-04-08T12:51:35.659Z,101936.09
2023-04-08T12:54:05.735Z,101911.38
2023-04-08T12:56:33.976Z,101930.66
2023-04-08T12:59:02.079Z,101918.69
2023-04-08T13:01:30.872Z,101839.16
2023-04-08T13:03:59.467Z,101936.09
2023-04-08T13:06:27.739Z,101932.53
2023-04-08T13:08:55.668Z,101936.28
2023-04-08T13:11:25.014Z,101932.53
2023-04-08T13:13:53.207Z,101935.25
2023-04-08T13:16:21.764Z,101926.25
2023-04-08T13:18:50.005Z,101931.69
2023-04-08T13:21:18.169Z,101843.34
2023-04-08T13:23:46.918Z,101940.69
2023-04-08T13:26:14.941Z,101948.00
2023-04-08T13:31:18.005Z,101924.00
2023-04-08T13:33:46.294Z,101939.00
2023-04-08T13:36:14.248Z,101939.00
2023-04-08T13:38:42.189Z,101932.72
2023-04-08T13:41:10.051Z,101934.41
2023-04-08T13:43:37.945Z,101937.13
2023-04-08T13:46:08.168Z,101930.84
2023-04-08T13:48:36.156Z,101928.13
2023-04-08T13:51:04.208Z,101920.81
2023-04-08T13:53:32.376Z,101923.53
2023-04-08T13:56:00.379Z,101920.81
2023-04-08T13:58:28.262Z,101916.22
2023-04-08T14:00:56.513Z,101921.66
2023-04-08T14:03:26.394Z,101915.22
2023-04-08T14:05:54.448Z,101876.50
2023-04-08T14:08:25.641Z,101921.66
2023-04-08T14:10:53.945Z,101918.94
2023-04-08T14:13:22.206Z,101913.50
2023-04-08T14:15:50.153Z,101898.53
2023-04-08T14:18:18.379Z,101909.94
2023-04-08T14:20:47.699Z,101899.84
2023-04-08T14:23:16.928Z,101903.41
2023-04-08T14:25:44.889Z,101908.06
2023-04-08T14:28:12.927Z,101909.94
2023-04-08T14:30:40.980Z,101888.50
2023-04-08T14:33:09.210Z,101910.78
2023-04-08T14:35:37.853Z,101914.34
2023-04-08T14:38:07.242Z,101918.94
2023-04-08T14:40:37.168Z,101918.09
2023-04-08T14:43:07.469Z,101911.81
2023-04-08T14:45:35.556Z,101912.66
2023-04-08T14:48:03.667Z,101918.09
2023-04-08T14:50:31.768Z,101821.84
2023-04-08T14:52:59.942Z,101908.06
2023-04-08T14:55:30.162Z,101912.66
2023-04-08T14:57:59.851Z,101914.34
2023-04-08T15:00:28.858Z,101917.94
2023-04-08T15:02:58.459Z,101863.09
2023-04-08T15:05:26.608Z,101921.50
2023-04-08T15:07:54.977Z,101915.22
2023-04-08T15:10:22.895Z,101920.63
2023-04-08T15:12:52.473Z,101924.19
2023-04-08T15:15:20.436Z,101920.63
2023-04-08T15:17:50.220Z,101816.31
2023-04-08T15:20:20.217Z,101898.53
2023-04-08T15:22:48.507Z,101886.38
2023-04-08T15:25:16.483Z,101920.63
2023-04-08T15:27:44.416Z,101925.22
2023-04-08T15:30:14.231Z,101921.66
2023-04-08T15:32:42.998Z,101923.34
2023-04-08T15:35:11.569Z,101927.09
2023-04-08T15:37:39.523Z,101918.09
2023-04-08T15:40:11.173Z,101919.78
2023-04-08T15:42:39.093Z,101893.19
2023-04-08T15:45:10.012Z,101924.38
2023-04-08T15:47:39.311Z,101923.34
2023-04-08T15:50:08.251Z,101927.09
2023-04-08T15:52:36.392Z,101924.38
2023-04-08T15:55:04.885Z,101929.81
2023-04-08T15:57:33.227Z,101916.97
2023-04-08T16:00:01.172Z,101921.22
2023-04-08T16:02:29.636Z,101914.66
2023-04-08T16:04:59.390Z,101932.53
2023-04-08T16:07:27.444Z,101930.66
2023-04-08T16:09:55.401Z,101925.22
2023-04-08T16:12:25.397Z,101924.38
2023-04-08T16:14:53.623Z,101929.63
2023-04-08T16:17:21.916Z,101918.69
2023-04-08T16:19:51.534Z,101922.50
2023-04-08T16:22:20.900Z,101909.22
2023-04-08T16:24:49.114Z,101910.88
2023-04-08T16:27:17.011Z,101868.53
2023-04-08T16:29:44.995Z,101934.22
2023-04-08T16:32:12.923Z,101917.66
2023-04-08T16:34:41.113Z,101922.50
2023-04-08T16:37:09.109Z,101927.84
2023-04-08T16:39:38.473Z,101933.38
2023-04-08T16:42:06.723Z,101940.69
2023-04-08T16:44:34.720Z,101938.81
2023-04-08T16:47:02.643Z,101943.41
2023-04-08T16:49:30.561Z,101946.97
2023-04-08T16:51:58.487Z,101941.53
2023-04-08T16:54:26.704Z,101838.47
2023-04-08T16:56:56.959Z,101929.72
2023-04-08T16:59:24.922Z,101921.56
2023-04-08T17:01:52.912Z,101893.25
2023-04-08T17:04:21.277Z,101931.69
2023-04-08T17:06:49.383Z,101932.53
2023-04-08T17:09:17.344Z,101925.53
2023-04-08T17:11:45.355Z,101934.59
2023-04-08T17:14:14.936Z,101923.53
2023-04-08T17:16:42.898Z,101915.28
2023-04-08T17:19:12.209Z,101934.41
2023-04-08T17:21:42.096Z,101941.53
2023-04-08T17:24:10.348Z,101932.53
2023-04-08T17:26:38.251Z,101926.25
2023-04-08T17:29:06.211Z,101922.81
2023-04-08T17:31:36.198Z,101932.53
2023-04-08T17:34:04.230Z,101933.38
2023-04-08T17:36:32.160Z,101924.09
2023-04-08T17:39:00.145Z,101945.28
2023-04-08T17:41:39.106Z,101944.44
2023-04-08T17:44:08.898Z,101945.28
2023-04-08T17:46:38.241Z,101949.84
2023-04-08T17:49:06.144Z,101951.56
2023-04-08T17:51:34.473Z,101953.44
2023-04-08T17:54:02.638Z,101936.84
2023-04-08T17:56:31.034Z,101945.84
2023-04-08T17:58:59.023Z,101950.44
2023-04-08T18:01:27.048Z,101960.72
2023-04-08T18:03:57.116Z,101968.88
2023-04-08T18:06:28.444Z,101965.31
2023-04-08T18:08:56.343Z,101966.16
2023-04-08T18:11:26.575Z,101970.13
2023-04-08T18:13:54.772Z,101951.06
2023-04-08T18:16:22.960Z,101974.31
2023-04-08T18:18:51.432Z,101941.06
2023-04-08T18:21:22.039Z,101976.19
2023-04-08T18:23:50.958Z,101982.47
2023-04-08T18:26:19.145Z,101974.88
2023-04-08T18:28:47.258Z,101979.94
2023-04-08T18:31:15.162Z,101986.03
2023-04-08T18:33:43.447Z,101977.78
2023-04-08T18:36:12.331Z,101954.19
2023-04-08T18:38:41.857Z,101993.34
2023-04-08T18:41:10.025Z,101996.91
2023-04-08T18:43:38.594Z,101999.63
2023-04-08T18:46:06.589Z,101996.91
2023-04-08T18:48:34.539Z,101996.91
2023-04-08T18:51:02.689Z,101991.75
2023-04-08T18:53:30.867Z,101995.19
2023-04-08T18:56:00.253Z,102005.03
2023-04-08T18:58:28.262Z,102010.47
2023-04-08T19:00:56.164Z,102006.06
2023-04-08T19:03:24.651Z,102004.19
2023-04-08T19:05:52.772Z,102009.81
2023-04-08T19:08:21.123Z,101990.78
2023-04-08T19:10:49.032Z,101988.91
2023-04-08T19:13:18.614Z,101997.91
2023-04-08T19:15:46.487Z,102009.63
2023-04-08T19:18:14.415Z,102014.03
2023-04-08T19:20:42.454Z,102011.69
2023-04-08T19:23:10.392Z,102007.94
2023-04-08T19:25:38.293Z,102011.50
2023-04-08T19:28:06.456Z,101982.00
2023-04-08T19:30:37.942Z,102016.31
2023-04-08T19:33:07.819Z,102011.69
2023-04-08T19:35:35.833Z,102015.25
2023-04-08T19:38:03.803Z,102016.31
2023-04-08T19:40:31.883Z,102021.53
2023-04-08T19:43:00.121Z,102021.34
2023-04-08T19:45:28.063Z,102016.94
2023-04-08T19:47:57.418Z,102021.34
2023-04-08T19:50:25.523Z,102018.63
2023-04-08T19:52:53.736Z,102021.34
2023-04-08T19:55:21.866Z,102014.97
2023-04-08T19:57:51.746Z,101983.19
2023-04-08T20:00:20.063Z,102025.94
2023-04-08T20:02:48.279Z,102031.53
2023-04-08T20:05:17.882Z,102020.41
2023-04-08T20:07:45.812Z,102031.53
2023-04-08T20:10:13.843Z,102040.53
2023-04-08T20:12:42.129Z,102027.81
2023-04-08T20:15:23.696Z,102028.66
2023-04-08T20:17:52.730Z,102031.53
2023-04-08T20:20:22.843Z,102034.25
2023-04-08T20:22:50.912Z,101996.47
2023-04-08T20:25:18.995Z,102014.69
2023-04-08T20:27:47.068Z,102034.25
2023-04-08T20:30:15.002Z,102018.69
2023-04-08T20:32:43.275Z,102028.84
2023-04-08T20:35:11.806Z,102015.97
2023-04-08T20:37:41.563Z,102027.97
2023-04-08T20:40:10.554Z,102006.53
2023-04-08T20:42:38.673Z,102019.03
2023-04-08T20:45:10.610Z,102019.03
2023-04-08T20:47:38.779Z,102021.53
2023-04-08T20:50:08.089Z,102018.81
2023-04-08T20:52:36.028Z,102016.94
2023-04-08T20:55:06.029Z,102007.03
2023-04-08T20:57:33.992Z,102001.75
2023-04-08T21:00:02.176Z,102024.25
2023-04-08T21:02:30.172Z,102023.41
2023-04-08T21:04:59.420Z,102020.69
2023-04-08T21:07:27.342Z,102009.91
2023-04-08T21:09:55.338Z,102020.88
2023-04-08T21:12:24.616Z,102016.47
2023-04-08T21:14:52.866Z,101980.00
2023-04-08T21:17:20.867Z,102022.56
2023-04-08T21:19:48.815Z,102025.25
2023-04-08T21:22:17.640Z,102024.25
2023-04-08T21:24:45.627Z,102024.44
2023-04-08T21:27:13.650Z,102021.53
2023-04-08T21:29:43.036Z,102019.84
2023-04-08T21:32:11.234Z,102027.16
2023-04-08T21:34:39.498Z,102024.44
2023-04-08T21:37:07.447Z,102008.59
2023-04-08T21:39:35.355Z,102025.25
2023-04-08T21:42:03.261Z,102030.69
2023-04-08T21:44:31.238Z,102024.44
2023-04-08T21:47:01.840Z,102029.88
2023-04-08T21:49:30.768Z,102027.97
2023-04-08T21:51:58.771Z,101847.63
2023-04-08T21:54:27.347Z,102010.94
2023-04-08T21:56:56.729Z,102027.81
2023-04-08T21:59:24.805Z,102030.53
2023-04-08T22:01:52.788Z,102025.09
2023-04-08T22:04:22.112Z,101986.94
2023-04-08T22:06:51.162Z,102025.75
2023-04-08T22:09:19.441Z,102019.66
2023-04-08T22:11:47.375Z,102029.69
2023-04-08T22:14:17.363Z,102023.22
2023-04-08T22:16:45.454Z,102022.38
2023-04-08T22:19:13.465Z,101980.56
2023-04-08T22:21:42.824Z,102022.56
2023-04-08T22:24:11.176Z,102002.97
2023-04-08T22:26:39.137Z,102033.41
2023-04-08T22:29:07.345Z,102031.75
2023-04-08T22:31:38.169Z,102022.75
2023-04-08T22:34:06.104Z,102015.63
2023-04-08T22:36:33.945Z,102019.19
2023-04-08T22:39:03.907Z,102018.34
2023-04-08T22:41:31.829Z,102013.94
2023-04-08T22:43:59.697Z,102017.69
2023-04-08T22:46:27.686Z,102013.09
2023-04-08T22:48:55.587Z,102017.50
2023-04-08T22:51:23.528Z,102018.34
2023-04-08T22:53:51.537Z,102020.22
2023-04-08T22:56:21.465Z,102015.63
2023-04-08T22:58:49.434Z,102016.66
2023-04-08T23:01:18.207Z,101992.38
2023-04-08T23:03:46.466Z,102010.19
2023-04-08T23:06:14.519Z,102011.22
2023-04-08T23:08:43.954Z,102017.50
2023-04-08T23:11:12.124Z,102015.63
2023-04-08T23:13:41.447Z,102012.06
2023-04-08T23:16:09.878Z,101995.03
2023-04-08T23:18:37.828Z,102005.97
2023-04-08T23:21:06.681Z,102013.09
2023-04-08T23:23:34.901Z,102006.81
2023-04-08T23:26:02.875Z,102009.53
2023-04-08T23:28:30.851Z,102014.97
2023-04-08T23:31:00.182Z,102005.13
2023-04-08T23:33:28.301Z,101990.78
2023-04-08T23:35:56.307Z,102007.84
2023-04-08T23:38:24.257Z,102009.75
2023-04-08T23:40:52.502Z,102007.84
2023-04-08T23:43:21.326Z,102007.03
2023-04-08T23:45:49.202Z,102009.75
2023-04-08T23:48:18.506Z,102011.41
2023-04-08T23:50:46.563Z,102008.88
2023-04-08T23:53:14.498Z,102008.88
2023-04-08T23:55:42.448Z,102009.75
2023-04-08T23:58:10.345Z,102015.16
